createdAt,value
2022-12-25T00:06:34.496Z,21.85
2022-12-25T00:16:37.751Z,21.85
2022-12-25T00:26:40.939Z,21.85
2022-12-25T00:36:44.184Z,21.83
2022-12-25T00:46:47.446Z,21.85
2022-12-25T00:56:50.653Z,21.85
2022-12-25T01:06:53.787Z,21.88
2022-12-25T01:16:57.115Z,21.85
2022-12-25T01:27:00.359Z,21.85
2022-12-25T01:37:03.538Z,21.88
2022-12-25T01:47:06.671Z,21.88
2022-12-25T01:57:09.880Z,21.85
2022-12-25T02:07:13.109Z,21.85
2022-12-25T02:17:16.325Z,21.85
2022-12-25T02:27:19.524Z,21.83
2022-12-25T02:37:22.701Z,21.83
2022-12-25T02:47:25.846Z,21.83
2022-12-25T02:57:29.045Z,21.83
2022-12-25T03:07:32.185Z,21.83
2022-12-25T03:17:35.369Z,21.83
2022-12-25T03:27:38.525Z,21.85
2022-12-25T03:37:41.697Z,21.83
2022-12-25T03:47:44.848Z,21.85
2022-12-25T03:57:48.045Z,21.85
2022-12-25T04:07:51.189Z,21.83
2022-12-25T04:17:54.378Z,21.83
2022-12-25T04:27:57.528Z,21.83
2022-12-25T04:38:00.745Z,21.82
2022-12-25T04:48:03.913Z,21.83
2022-12-25T04:58:07.096Z,21.83
2022-12-25T05:08:10.234Z,21.82
2022-12-25T05:18:13.418Z,21.82
2022-12-25T05:28:16.568Z,21.83
2022-12-25T05:38:19.738Z,21.83
2022-12-25T05:48:22.882Z,21.82
2022-12-25T05:58:26.182Z,21.81
2022-12-25T06:08:29.329Z,21.81
2022-12-25T06:18:32.544Z,21.81
2022-12-25T06:28:35.692Z,21.81
2022-12-25T06:38:38.901Z,21.81
2022-12-25T07:09:37.929Z,21.79
2022-12-25T07:19:44.975Z,21.79
2022-12-25T07:29:46.108Z,21.79
2022-12-25T07:39:49.253Z,21.81
2022-12-25T07:49:52.431Z,21.79
2022-12-25T07:59:55.564Z,21.79
2022-12-25T08:09:58.743Z,21.78
2022-12-25T08:20:01.903Z,21.78
2022-12-25T08:30:05.069Z,21.78
2022-12-25T08:40:08.213Z,21.78
2022-12-25T08:50:11.410Z,21.79
2022-12-25T09:00:14.705Z,21.78
2022-12-25T09:10:17.892Z,21.78
2022-12-25T09:20:21.249Z,21.78
2022-12-25T09:30:24.443Z,21.78
2022-12-25T09:40:27.583Z,21.75
2022-12-25T09:50:30.754Z,21.76
2022-12-25T10:00:33.897Z,21.76
2022-12-25T10:10:37.078Z,21.76
2022-12-25T10:20:40.236Z,21.75
2022-12-25T10:30:43.459Z,21.76
2022-12-25T10:40:46.621Z,21.76
2022-12-25T10:50:49.805Z,21.76
2022-12-25T11:00:52.949Z,21.78
2022-12-25T11:10:56.138Z,21.76
2022-12-25T11:20:59.276Z,21.78
2022-12-25T11:31:02.512Z,21.75
2022-12-25T11:41:05.676Z,21.75
2022-12-25T11:51:08.856Z,21.75
2022-12-25T12:01:11.999Z,21.74
2022-12-25T12:11:15.182Z,21.75
2022-12-25T12:21:18.327Z,21.75
2022-12-25T12:31:21.553Z,21.75
2022-12-25T12:41:24.730Z,21.75
2022-12-25T12:51:27.928Z,21.76
2022-12-25T13:01:31.210Z,21.74
2022-12-25T13:11:34.459Z,21.75
2022-12-25T13:21:37.616Z,21.76
2022-12-25T13:31:40.853Z,21.75
2022-12-25T13:41:44.037Z,21.75
2022-12-25T13:51:47.231Z,21.75
2022-12-25T14:01:50.514Z,21.75
2022-12-25T14:11:53.764Z,21.75
2022-12-25T14:21:56.921Z,21.75
2022-12-25T14:32:00.133Z,21.74
2022-12-25T14:42:03.290Z,21.75
2022-12-25T14:52:06.478Z,21.75
2022-12-25T15:02:15.090Z,21.74
2022-12-25T15:12:13.590Z,21.72
2022-12-25T15:22:16.752Z,21.72
2022-12-25T15:32:20.013Z,21.72
2022-12-25T15:42:23.194Z,21.72
2022-12-25T15:52:26.374Z,21.72
2022-12-25T16:02:29.698Z,21.74
2022-12-25T16:12:32.978Z,21.72
2022-12-25T16:22:36.119Z,21.72
2022-12-25T16:32:39.308Z,21.72
2022-12-25T16:42:42.609Z,21.72
2022-12-25T16:52:45.847Z,21.72
2022-12-25T17:02:49.299Z,21.74
2022-12-25T17:12:52.599Z,21.72
2022-12-25T17:22:55.743Z,21.71
2022-12-25T17:32:58.947Z,21.71
2022-12-25T17:43:02.091Z,21.71
2022-12-25T17:53:05.292Z,21.72
2022-12-25T18:03:11.647Z,21.72
2022-12-25T18:13:12.797Z,21.74
2022-12-25T18:23:15.942Z,21.72
2022-12-25T18:33:19.124Z,21.69
2022-12-25T18:43:22.256Z,21.71
2022-12-25T18:53:26.228Z,21.71
2022-12-25T19:03:29.381Z,21.72
2022-12-25T19:13:32.557Z,21.71
2022-12-25T19:23:35.711Z,21.71
2022-12-25T19:33:38.914Z,21.69
2022-12-25T19:43:42.054Z,21.69
2022-12-25T19:53:45.243Z,21.71
2022-12-25T20:03:48.380Z,21.71
2022-12-25T20:13:51.576Z,21.71
2022-12-25T20:23:54.728Z,21.71
2022-12-25T20:33:57.936Z,21.69
2022-12-25T20:44:01.073Z,21.71
2022-12-25T20:54:04.265Z,21.71
2022-12-25T21:04:11.507Z,21.69
2022-12-25T21:14:11.378Z,21.67
2022-12-25T21:24:14.517Z,21.67
2022-12-25T21:34:17.715Z,21.71
2022-12-25T21:44:20.849Z,21.69
2022-12-25T21:54:24.042Z,21.69
2022-12-25T22:04:27.192Z,21.71
2022-12-25T22:14:52.397Z,21.71
2022-12-25T22:24:34.323Z,21.69
2022-12-25T22:34:37.484Z,21.69
2022-12-25T22:44:40.652Z,21.69
2022-12-25T22:54:43.827Z,21.69
2022-12-25T23:04:46.996Z,21.69
2022-12-25T23:14:50.188Z,21.67
2022-12-25T23:24:53.321Z,21.67
2022-12-25T23:34:56.507Z,21.67
2022-12-25T23:44:59.646Z,21.67
2022-12-25T23:55:02.834Z,21.69
